sensor_id;sensor_type;location;lat;lon;timestamp;temperature;humidity
12841;DHT22;6487;48.626;12.486;2023-01-01T00:00:47;6.50;99.90
12841;DHT22;6487;48.626;12.486;2023-01-01T00:03:16;6.50;99.90
12841;DHT22;6487;48.626;12.486;2023-01-01T00:05:44;6.40;99.90
12841;DHT22;6487;48.626;12.486;2023-01-01T00:08:12;6.40;99.90
12841;DHT22;6487;48.626;12.486;2023-01-01T00:10:42;6.40;99.90
12841;DHT22;6487;48.626;12.486;2023-01-01T00:13:12;6.40;99.90
12841;DHT22;6487;48.626;12.486;2023-01-01T00:15:41;6.40;99.90
12841;DHT22;6487;48.626;12.486;2023-01-01T00:18:09;6.30;99.90
12841;DHT22;6487;48.626;12.486;2023-01-01T00:20:37;6.30;99.90
12841;DHT22;6487;48.626;12.486;2023-01-01T00:23:05;6.20;99.90
12841;DHT22;6487;48.626;12.486;2023-01-01T00:25:34;6.30;99.90
12841;DHT22;6487;48.626;12.486;2023-01-01T00:28:03;6.20;99.90
12841;DHT22;6487;48.626;12.486;2023-01-01T00:30:32;6.10;99.90
12841;DHT22;6487;48.626;12.486;2023-01-01T00:33:00;6.20;99.90
12841;DHT22;6487;48.626;12.486;2023-01-01T00:35:28;6.20;99.90
12841;DHT22;6487;48.626;12.486;2023-01-01T00:37:57;6.10;99.90
12841;DHT22;6487;48.626;12.486;2023-01-01T00:40:25;6.10;99.90
12841;DHT22;6487;48.626;12.486;2023-01-01T00:42:53;6.10;99.90
12841;DHT22;6487;48.626;12.486;2023-01-01T00:45:23;6.00;99.90
12841;DHT22;6487;48.626;12.486;2023-01-01T00:47:52;6.10;99.90
12841;DHT22;6487;48.626;12.486;2023-01-01T00:50:21;6.10;99.90
12841;DHT22;6487;48.626;12.486;2023-01-01T00:52:50;6.10;99.90
12841;DHT22;6487;48.626;12.486;2023-01-01T00:55:18;6.00;99.90
12841;DHT22;6487;48.626;12.486;2023-01-01T00:57:46;6.00;99.90
12841;DHT22;6487;48.626;12.486;2023-01-01T01:00:15;5.90;99.90
12841;DHT22;6487;48.626;12.486;2023-01-01T01:02:45;5.80;99.90
12841;DHT22;6487;48.626;12.486;2023-01-01T01:05:14;5.90;99.90
12841;DHT22;6487;48.626;12.486;2023-01-01T01:07:42;5.90;99.90
12841;DHT22;6487;48.626;12.486;2023-01-01T01:10:11;5.80;99.90
12841;DHT22;6487;48.626;12.486;2023-01-01T01:12:39;5.90;99.90
12841;DHT22;6487;48.626;12.486;2023-01-01T01:15:09;5.80;99.90
12841;DHT22;6487;48.626;12.486;2023-01-01T01:17:38;5.80;99.90
12841;DHT22;6487;48.626;12.486;2023-01-01T01:20:08;5.70;99.90
12841;DHT22;6487;48.626;12.486;2023-01-01T01:22:38;5.70;99.90
12841;DHT22;6487;48.626;12.486;2023-01-01T01:25:07;5.70;99.90
12841;DHT22;6487;48.626;12.486;2023-01-01T01:27:36;5.70;99.90
12841;DHT22;6487;48.626;12.486;2023-01-01T01:30:06;5.70;99.90
12841;DHT22;6487;48.626;12.486;2023-01-01T01:32:35;5.70;99.90
12841;DHT22;6487;48.626;12.486;2023-01-01T01:35:04;5.70;99.90
12841;DHT22;6487;48.626;12.486;2023-01-01T01:37:34;5.70;99.90
12841;DHT22;6487;48.626;12.486;2023-01-01T01:40:03;5.60;99.90
12841;DHT22;6487;48.626;12.486;2023-01-01T01:42:32;5.70;99.90
12841;DHT22;6487;48.626;12.486;2023-01-01T01:45:01;5.60;99.90
12841;DHT22;6487;48.626;12.486;2023-01-01T01:47:32;5.60;99.90
12841;DHT22;6487;48.626;12.486;2023-01-01T01:50:09;5.70;99.90
12841;DHT22;6487;48.626;12.486;2023-01-01T01:52:47;5.80;99.90
12841;DHT22;6487;48.626;12.486;2023-01-01T01:55:25;5.80;99.90
12841;DHT22;6487;48.626;12.486;2023-01-01T01:57:56;5.80;99.90
12841;DHT22;6487;48.626;12.486;2023-01-01T02:00:25;5.70;99.90
12841;DHT22;6487;48.626;12.486;2023-01-01T02:02:57;5.70;99.90
12841;DHT22;6487;48.626;12.486;2023-01-01T02:05:28;5.70;99.90
12841;DHT22;6487;48.626;12.486;2023-01-01T02:07:59;5.70;99.90
12841;DHT22;6487;48.626;12.486;2023-01-01T02:10:27;5.60;99.90
12841;DHT22;6487;48.626;12.486;2023-01-01T02:12:56;5.70;99.90
12841;DHT22;6487;48.626;12.486;2023-01-01T02:15:29;5.70;99.90
12841;DHT22;6487;48.626;12.486;2023-01-01T02:18:00;5.70;99.90
12841;DHT22;6487;48.626;12.486;2023-01-01T02:20:40;5.70;99.90
12841;DHT22;6487;48.626;12.486;2023-01-01T02:23:48;5.70;99.90
12841;DHT22;6487;48.626;12.486;2023-01-01T02:26:34;5.70;99.90
12841;DHT22;6487;48.626;12.486;2023-01-01T02:29:30;5.70;99.90
12841;DHT22;6487;48.626;12.486;2023-01-01T02:32:07;5.60;99.90
12841;DHT22;6487;48.626;12.486;2023-01-01T02:34:40;5.50;99.90
12841;DHT22;6487;48.626;12.486;2023-01-01T02:37:14;5.40;99.90
12841;DHT22;6487;48.626;12.486;2023-01-01T02:39:50;5.40;99.90
12841;DHT22;6487;48.626;12.486;2023-01-01T02:42:24;5.50;99.90
12841;DHT22;6487;48.626;12.486;2023-01-01T02:44:57;5.50;99.90
12841;DHT22;6487;48.626;12.486;2023-01-01T02:47:26;5.40;99.90
12841;DHT22;6487;48.626;12.486;2023-01-01T02:49:59;5.40;99.90
12841;DHT22;6487;48.626;12.486;2023-01-01T02:52:48;5.40;99.90
12841;DHT22;6487;48.626;12.486;2023-01-01T02:55:30;5.40;99.90
12841;DHT22;6487;48.626;12.486;2023-01-01T02:58:08;5.40;99.90
12841;DHT22;6487;48.626;12.486;2023-01-01T03:01:07;5.50;99.90
12841;DHT22;6487;48.626;12.486;2023-01-01T03:03:39;5.40;99.90
12841;DHT22;6487;48.626;12.486;2023-01-01T03:06:13;5.30;99.90
12841;DHT22;6487;48.626;12.486;2023-01-01T03:08:57;5.30;99.90
12841;DHT22;6487;48.626;12.486;2023-01-01T03:11:39;5.30;99.90
12841;DHT22;6487;48.626;12.486;2023-01-01T03:14:17;5.30;99.90
12841;DHT22;6487;48.626;12.486;2023-01-01T03:16:52;5.30;99.90
12841;DHT22;6487;48.626;12.486;2023-01-01T03:19:25;5.30;99.90
12841;DHT22;6487;48.626;12.486;2023-01-01T03:21:58;5.30;99.90
12841;DHT22;6487;48.626;12.486;2023-01-01T03:24:33;5.30;99.90
12841;DHT22;6487;48.626;12.486;2023-01-01T03:27:06;5.30;99.90
12841;DHT22;6487;48.626;12.486;2023-01-01T03:29:40;5.20;99.90
12841;DHT22;6487;48.626;12.486;2023-01-01T03:32:13;5.20;99.90
12841;DHT22;6487;48.626;12.486;2023-01-01T03:34:50;5.20;99.90
12841;DHT22;6487;48.626;12.486;2023-01-01T03:37:24;5.20;99.90
12841;DHT22;6487;48.626;12.486;2023-01-01T03:39:56;5.20;99.90
12841;DHT22;6487;48.626;12.486;2023-01-01T03:42:30;5.10;99.90
12841;DHT22;6487;48.626;12.486;2023-01-01T03:45:05;5.10;99.90
12841;DHT22;6487;48.626;12.486;2023-01-01T03:47:38;5.10;99.90
12841;DHT22;6487;48.626;12.486;2023-01-01T03:50:07;5.20;99.90
12841;DHT22;6487;48.626;12.486;2023-01-01T03:52:42;5.00;99.90
12841;DHT22;6487;48.626;12.486;2023-01-01T03:55:18;5.00;99.90
12841;DHT22;6487;48.626;12.486;2023-01-01T03:57:56;4.90;99.90
12841;DHT22;6487;48.626;12.486;2023-01-01T04:00:32;4.80;99.90
12841;DHT22;6487;48.626;12.486;2023-01-01T04:03:06;4.90;99.90
12841;DHT22;6487;48.626;12.486;2023-01-01T04:05:39;5.00;99.90
12841;DHT22;6487;48.626;12.486;2023-01-01T04:08:09;5.00;99.90
12841;DHT22;6487;48.626;12.486;2023-01-01T04:10:42;5.00;99.90
12841;DHT22;6487;48.626;12.486;2023-01-01T04:13:12;5.00;99.90
12841;DHT22;6487;48.626;12.486;2023-01-01T04:15:40;5.10;99.90
12841;DHT22;6487;48.626;12.486;2023-01-01T04:18:10;5.00;99.90
12841;DHT22;6487;48.626;12.486;2023-01-01T04:20:38;4.90;99.90
12841;DHT22;6487;48.626;12.486;2023-01-01T04:23:08;5.00;99.90
12841;DHT22;6487;48.626;12.486;2023-01-01T04:25:36;5.00;99.90
12841;DHT22;6487;48.626;12.486;2023-01-01T04:28:05;5.00;99.90
12841;DHT22;6487;48.626;12.486;2023-01-01T04:30:33;5.00;99.90
12841;DHT22;6487;48.626;12.486;2023-01-01T04:33:00;5.00;99.90
12841;DHT22;6487;48.626;12.486;2023-01-01T04:35:30;5.00;99.90
12841;DHT22;6487;48.626;12.486;2023-01-01T04:37:58;5.00;99.90
12841;DHT22;6487;48.626;12.486;2023-01-01T04:40:29;5.00;99.90
12841;DHT22;6487;48.626;12.486;2023-01-01T04:42:57;5.00;99.90
12841;DHT22;6487;48.626;12.486;2023-01-01T04:45:26;4.90;99.90
12841;DHT22;6487;48.626;12.486;2023-01-01T04:47:54;4.70;99.90
12841;DHT22;6487;48.626;12.486;2023-01-01T04:50:22;4.90;99.90
12841;DHT22;6487;48.626;12.486;2023-01-01T04:52:52;4.90;99.90
12841;DHT22;6487;48.626;12.486;2023-01-01T04:55:20;4.90;99.90
12841;DHT22;6487;48.626;12.486;2023-01-01T04:57:48;4.80;99.90
12841;DHT22;6487;48.626;12.486;2023-01-01T05:00:17;4.80;99.90
12841;DHT22;6487;48.626;12.486;2023-01-01T05:02:45;4.80;99.90
12841;DHT22;6487;48.626;12.486;2023-01-01T05:05:13;4.80;99.90
12841;DHT22;6487;48.626;12.486;2023-01-01T05:07:42;4.80;99.90
12841;DHT22;6487;48.626;12.486;2023-01-01T05:10:12;4.80;99.90
12841;DHT22;6487;48.626;12.486;2023-01-01T05:12:41;4.90;99.90
12841;DHT22;6487;48.626;12.486;2023-01-01T05:15:09;4.80;99.90
12841;DHT22;6487;48.626;12.486;2023-01-01T05:17:38;4.80;99.90
12841;DHT22;6487;48.626;12.486;2023-01-01T05:20:07;4.80;99.90
12841;DHT22;6487;48.626;12.486;2023-01-01T05:22:35;4.80;99.90
12841;DHT22;6487;48.626;12.486;2023-01-01T05:25:04;4.80;99.90
12841;DHT22;6487;48.626;12.486;2023-01-01T05:27:35;4.80;99.90
12841;DHT22;6487;48.626;12.486;2023-01-01T05:30:04;4.80;99.90
12841;DHT22;6487;48.626;12.486;2023-01-01T05:32:35;4.80;99.90
12841;DHT22;6487;48.626;12.486;2023-01-01T05:35:04;4.90;99.90
12841;DHT22;6487;48.626;12.486;2023-01-01T05:37:33;4.70;99.90
12841;DHT22;6487;48.626;12.486;2023-01-01T05:40:01;4.80;99.90
12841;DHT22;6487;48.626;12.486;2023-01-01T05:42:29;4.80;99.90
12841;DHT22;6487;48.626;12.486;2023-01-01T05:44:59;4.70;99.90
12841;DHT22;6487;48.626;12.486;2023-01-01T05:47:27;4.70;99.90
12841;DHT22;6487;48.626;12.486;2023-01-01T05:49:56;4.60;99.90
12841;DHT22;6487;48.626;12.486;2023-01-01T05:52:24;4.70;99.90
12841;DHT22;6487;48.626;12.486;2023-01-01T05:54:52;4.60;99.90
12841;DHT22;6487;48.626;12.486;2023-01-01T05:57:21;4.60;99.90
12841;DHT22;6487;48.626;12.486;2023-01-01T05:59:49;4.60;99.90
12841;DHT22;6487;48.626;12.486;2023-01-01T06:02:19;4.70;99.90
12841;DHT22;6487;48.626;12.486;2023-01-01T06:04:47;4.50;99.90
12841;DHT22;6487;48.626;12.486;2023-01-01T06:07:16;4.50;99.90
12841;DHT22;6487;48.626;12.486;2023-01-01T06:09:44;4.40;99.90
12841;DHT22;6487;48.626;12.486;2023-01-01T06:12:12;4.40;99.90
12841;DHT22;6487;48.626;12.486;2023-01-01T06:14:40;4.50;99.90
12841;DHT22;6487;48.626;12.486;2023-01-01T06:17:09;4.50;99.90
12841;DHT22;6487;48.626;12.486;2023-01-01T06:19:38;4.70;99.90
12841;DHT22;6487;48.626;12.486;2023-01-01T06:22:07;4.50;99.90
12841;DHT22;6487;48.626;12.486;2023-01-01T06:24:35;4.50;99.90
12841;DHT22;6487;48.626;12.486;2023-01-01T06:27:05;4.50;99.90
12841;DHT22;6487;48.626;12.486;2023-01-01T06:29:33;4.60;99.90
12841;DHT22;6487;48.626;12.486;2023-01-01T06:32:02;4.60;99.90
12841;DHT22;6487;48.626;12.486;2023-01-01T06:34:30;4.60;99.90
12841;DHT22;6487;48.626;12.486;2023-01-01T06:37:00;4.60;99.90
12841;DHT22;6487;48.626;12.486;2023-01-01T06:39:32;4.60;99.90
12841;DHT22;6487;48.626;12.486;2023-01-01T06:42:01;4.60;99.90
12841;DHT22;6487;48.626;12.486;2023-01-01T06:44:29;4.60;99.90
12841;DHT22;6487;48.626;12.486;2023-01-01T06:46:57;4.80;99.90
12841;DHT22;6487;48.626;12.486;2023-01-01T06:49:26;4.60;99.90
12841;DHT22;6487;48.626;12.486;2023-01-01T06:51:54;4.50;99.90
12841;DHT22;6487;48.626;12.486;2023-01-01T06:54:24;4.60;99.90
12841;DHT22;6487;48.626;12.486;2023-01-01T06:56:52;4.60;99.90
12841;DHT22;6487;48.626;12.486;2023-01-01T06:59:20;4.60;99.90
12841;DHT22;6487;48.626;12.486;2023-01-01T07:01:49;4.70;99.90
12841;DHT22;6487;48.626;12.486;2023-01-01T07:04:17;4.60;99.90
12841;DHT22;6487;48.626;12.486;2023-01-01T07:06:46;4.60;99.90
12841;DHT22;6487;48.626;12.486;2023-01-01T07:09:14;4.60;99.90
12841;DHT22;6487;48.626;12.486;2023-01-01T07:11:44;4.60;99.90
12841;DHT22;6487;48.626;12.486;2023-01-01T07:14:12;4.60;99.90
12841;DHT22;6487;48.626;12.486;2023-01-01T07:16:40;4.60;99.90
12841;DHT22;6487;48.626;12.486;2023-01-01T07:19:08;4.60;99.90
12841;DHT22;6487;48.626;12.486;2023-01-01T07:21:40;4.50;99.90
12841;DHT22;6487;48.626;12.486;2023-01-01T07:24:12;4.50;99.90
12841;DHT22;6487;48.626;12.486;2023-01-01T07:26:43;4.60;99.90
12841;DHT22;6487;48.626;12.486;2023-01-01T07:29:12;4.60;99.90
12841;DHT22;6487;48.626;12.486;2023-01-01T07:31:42;4.60;99.90
12841;DHT22;6487;48.626;12.486;2023-01-01T07:34:13;4.70;99.90
12841;DHT22;6487;48.626;12.486;2023-01-01T07:36:42;4.70;99.90
12841;DHT22;6487;48.626;12.486;2023-01-01T07:39:11;4.60;99.90
12841;DHT22;6487;48.626;12.486;2023-01-01T07:41:39;4.60;99.90
12841;DHT22;6487;48.626;12.486;2023-01-01T07:44:09;4.60;99.90
12841;DHT22;6487;48.626;12.486;2023-01-01T07:46:37;4.60;99.90
12841;DHT22;6487;48.626;12.486;2023-01-01T07:49:05;4.60;99.90
12841;DHT22;6487;48.626;12.486;2023-01-01T07:51:34;4.60;99.90
12841;DHT22;6487;48.626;12.486;2023-01-01T07:54:02;4.60;99.90
12841;DHT22;6487;48.626;12.486;2023-01-01T07:56:33;4.60;99.90
12841;DHT22;6487;48.626;12.486;2023-01-01T07:59:02;4.60;99.90
12841;DHT22;6487;48.626;12.486;2023-01-01T08:01:34;4.70;99.90
12841;DHT22;6487;48.626;12.486;2023-01-01T08:04:04;4.70;99.90
12841;DHT22;6487;48.626;12.486;2023-01-01T08:06:32;4.70;99.90
12841;DHT22;6487;48.626;12.486;2023-01-01T08:09:01;4.60;99.90
12841;DHT22;6487;48.626;12.486;2023-01-01T08:11:29;4.60;99.90
12841;DHT22;6487;48.626;12.486;2023-01-01T08:13:57;4.60;99.90
12841;DHT22;6487;48.626;12.486;2023-01-01T08:16:26;4.70;99.90
12841;DHT22;6487;48.626;12.486;2023-01-01T08:18:55;4.80;99.90
12841;DHT22;6487;48.626;12.486;2023-01-01T08:21:24;4.70;99.90
12841;DHT22;6487;48.626;12.486;2023-01-01T08:23:52;4.80;99.90
12841;DHT22;6487;48.626;12.486;2023-01-01T08:26:27;4.80;99.90
12841;DHT22;6487;48.626;12.486;2023-01-01T08:28:57;4.90;99.90
12841;DHT22;6487;48.626;12.486;2023-01-01T08:31:26;5.10;99.90
12841;DHT22;6487;48.626;12.486;2023-01-01T08:33:56;4.90;99.90
12841;DHT22;6487;48.626;12.486;2023-01-01T08:36:24;5.00;99.90
12841;DHT22;6487;48.626;12.486;2023-01-01T08:38:52;5.00;99.90
12841;DHT22;6487;48.626;12.486;2023-01-01T08:41:21;5.10;99.90
12841;DHT22;6487;48.626;12.486;2023-01-01T08:43:49;5.20;99.90
12841;DHT22;6487;48.626;12.486;2023-01-01T08:46:17;5.20;99.90
12841;DHT22;6487;48.626;12.486;2023-01-01T08:48:46;5.30;99.90
12841;DHT22;6487;48.626;12.486;2023-01-01T08:51:15;5.40;99.90
12841;DHT22;6487;48.626;12.486;2023-01-01T08:53:44;5.40;99.90
12841;DHT22;6487;48.626;12.486;2023-01-01T08:56:17;5.50;99.90
12841;DHT22;6487;48.626;12.486;2023-01-01T08:58:46;5.60;99.90
12841;DHT22;6487;48.626;12.486;2023-01-01T09:01:15;5.60;99.90
12841;DHT22;6487;48.626;12.486;2023-01-01T09:03:43;5.70;99.90
12841;DHT22;6487;48.626;12.486;2023-01-01T09:06:12;5.70;99.90
12841;DHT22;6487;48.626;12.486;2023-01-01T09:08:42;5.80;99.90
12841;DHT22;6487;48.626;12.486;2023-01-01T09:11:18;5.80;99.90
12841;DHT22;6487;48.626;12.486;2023-01-01T09:13:48;5.90;99.90
12841;DHT22;6487;48.626;12.486;2023-01-01T09:16:18;5.90;99.90
12841;DHT22;6487;48.626;12.486;2023-01-01T09:18:46;6.00;99.90
12841;DHT22;6487;48.626;12.486;2023-01-01T09:21:15;6.10;99.90
12841;DHT22;6487;48.626;12.486;2023-01-01T09:23:44;6.10;99.90
12841;DHT22;6487;48.626;12.486;2023-01-01T09:26:13;6.20;99.90
12841;DHT22;6487;48.626;12.486;2023-01-01T09:28:41;6.20;99.90
12841;DHT22;6487;48.626;12.486;2023-01-01T09:31:09;6.30;99.90
12841;DHT22;6487;48.626;12.486;2023-01-01T09:33:38;6.40;99.90
12841;DHT22;6487;48.626;12.486;2023-01-01T09:36:14;6.40;99.90
12841;DHT22;6487;48.626;12.486;2023-01-01T09:38:49;6.50;99.90
12841;DHT22;6487;48.626;12.486;2023-01-01T09:41:22;6.60;99.90
12841;DHT22;6487;48.626;12.486;2023-01-01T09:44:02;6.80;99.90
12841;DHT22;6487;48.626;12.486;2023-01-01T09:46:35;6.90;99.90
12841;DHT22;6487;48.626;12.486;2023-01-01T09:49:08;7.10;99.90
12841;DHT22;6487;48.626;12.486;2023-01-01T09:51:40;7.30;99.90
12841;DHT22;6487;48.626;12.486;2023-01-01T09:54:26;7.50;99.90
12841;DHT22;6487;48.626;12.486;2023-01-01T09:56:57;7.70;99.90
12841;DHT22;6487;48.626;12.486;2023-01-01T09:59:27;7.90;99.90
12841;DHT22;6487;48.626;12.486;2023-01-01T10:02:00;8.10;99.90
12841;DHT22;6487;48.626;12.486;2023-01-01T10:04:43;8.30;99.90
12841;DHT22;6487;48.626;12.486;2023-01-01T10:07:22;8.60;99.90
12841;DHT22;6487;48.626;12.486;2023-01-01T10:10:03;8.80;99.90
12841;DHT22;6487;48.626;12.486;2023-01-01T10:12:39;8.90;99.90
12841;DHT22;6487;48.626;12.486;2023-01-01T10:15:15;9.00;99.90
12841;DHT22;6487;48.626;12.486;2023-01-01T10:17:50;9.30;99.90
12841;DHT22;6487;48.626;12.486;2023-01-01T10:20:24;9.50;99.90
12841;DHT22;6487;48.626;12.486;2023-01-01T10:22:57;9.80;99.90
12841;DHT22;6487;48.626;12.486;2023-01-01T10:25:30;10.00;99.90
12841;DHT22;6487;48.626;12.486;2023-01-01T10:28:04;10.00;99.90
12841;DHT22;6487;48.626;12.486;2023-01-01T10:30:36;10.10;99.90
12841;DHT22;6487;48.626;12.486;2023-01-01T10:33:10;10.40;99.90
12841;DHT22;6487;48.626;12.486;2023-01-01T10:35:42;10.60;99.90
12841;DHT22;6487;48.626;12.486;2023-01-01T10:38:20;10.90;99.90
12841;DHT22;6487;48.626;12.486;2023-01-01T10:41:01;11.10;99.90
12841;DHT22;6487;48.626;12.486;2023-01-01T10:43:30;11.20;99.90
12841;DHT22;6487;48.626;12.486;2023-01-01T10:46:00;11.50;99.90
12841;DHT22;6487;48.626;12.486;2023-01-01T10:48:30;11.60;99.90
12841;DHT22;6487;48.626;12.486;2023-01-01T10:51:01;11.60;99.90
12841;DHT22;6487;48.626;12.486;2023-01-01T10:53:32;11.80;99.90
12841;DHT22;6487;48.626;12.486;2023-01-01T10:56:09;11.90;99.90
12841;DHT22;6487;48.626;12.486;2023-01-01T10:58:43;12.10;99.90
12841;DHT22;6487;48.626;12.486;2023-01-01T11:01:19;12.10;99.90
12841;DHT22;6487;48.626;12.486;2023-01-01T11:03:57;12.30;99.90
12841;DHT22;6487;48.626;12.486;2023-01-01T11:06:27;12.10;99.90
12841;DHT22;6487;48.626;12.486;2023-01-01T11:09:01;12.20;99.90
12841;DHT22;6487;48.626;12.486;2023-01-01T11:11:40;12.40;99.90
12841;DHT22;6487;48.626;12.486;2023-01-01T11:14:20;12.40;99.90
12841;DHT22;6487;48.626;12.486;2023-01-01T11:16:52;12.50;99.90
12841;DHT22;6487;48.626;12.486;2023-01-01T11:19:23;12.60;99.90
12841;DHT22;6487;48.626;12.486;2023-01-01T11:21:54;12.60;99.90
12841;DHT22;6487;48.626;12.486;2023-01-01T11:24:25;12.70;99.90
12841;DHT22;6487;48.626;12.486;2023-01-01T11:27:16;12.70;99.90
12841;DHT22;6487;48.626;12.486;2023-01-01T11:29:48;12.70;99.90
12841;DHT22;6487;48.626;12.486;2023-01-01T11:32:20;12.50;99.90
12841;DHT22;6487;48.626;12.486;2023-01-01T11:34:55;12.60;99.90
12841;DHT22;6487;48.626;12.486;2023-01-01T11:37:27;12.50;99.90
12841;DHT22;6487;48.626;12.486;2023-01-01T11:40:00;12.60;99.90
12841;DHT22;6487;48.626;12.486;2023-01-01T11:42:33;12.50;99.90
12841;DHT22;6487;48.626;12.486;2023-01-01T11:45:08;12.50;99.90
12841;DHT22;6487;48.626;12.486;2023-01-01T11:47:41;12.60;99.90
12841;DHT22;6487;48.626;12.486;2023-01-01T11:50:18;12.60;99.90
12841;DHT22;6487;48.626;12.486;2023-01-01T11:52:53;12.60;99.90
12841;DHT22;6487;48.626;12.486;2023-01-01T11:55:31;12.50;99.90
12841;DHT22;6487;48.626;12.486;2023-01-01T11:58:11;12.60;99.90
12841;DHT22;6487;48.626;12.486;2023-01-01T12:00:48;12.50;99.90
12841;DHT22;6487;48.626;12.486;2023-01-01T12:03:22;12.50;99.90
12841;DHT22;6487;48.626;12.486;2023-01-01T12:06:03;12.50;99.90
12841;DHT22;6487;48.626;12.486;2023-01-01T12:08:37;12.50;99.90
12841;DHT22;6487;48.626;12.486;2023-01-01T12:11:14;12.50;99.90
12841;DHT22;6487;48.626;12.486;2023-01-01T12:13:53;12.40;99.90
12841;DHT22;6487;48.626;12.486;2023-01-01T12:16:36;12.40;99.90
12841;DHT22;6487;48.626;12.486;2023-01-01T12:19:12;12.30;99.90
12841;DHT22;6487;48.626;12.486;2023-01-01T12:21:45;12.30;99.90
12841;DHT22;6487;48.626;12.486;2023-01-01T12:24:19;12.20;99.90
12841;DHT22;6487;48.626;12.486;2023-01-01T12:26:56;12.30;99.90
12841;DHT22;6487;48.626;12.486;2023-01-01T12:29:54;12.20;99.90
12841;DHT22;6487;48.626;12.486;2023-01-01T12:36:06;12.20;99.90
12841;DHT22;6487;48.626;12.486;2023-01-01T12:42:06;12.20;99.90
12841;DHT22;6487;48.626;12.486;2023-01-01T12:44:49;12.20;99.90
12841;DHT22;6487;48.626;12.486;2023-01-01T12:47:35;12.20;99.90
12841;DHT22;6487;48.626;12.486;2023-01-01T12:50:18;12.20;99.90
12841;DHT22;6487;48.626;12.486;2023-01-01T12:52:58;12.10;99.90
12841;DHT22;6487;48.626;12.486;2023-01-01T12:56:00;12.10;99.90
12841;DHT22;6487;48.626;12.486;2023-01-01T12:58:39;12.10;99.90
12841;DHT22;6487;48.626;12.486;2023-01-01T13:01:13;12.10;99.90
12841;DHT22;6487;48.626;12.486;2023-01-01T13:03:49;12.10;99.90
12841;DHT22;6487;48.626;12.486;2023-01-01T13:06:21;12.00;99.90
12841;DHT22;6487;48.626;12.486;2023-01-01T13:08:58;12.00;99.90
12841;DHT22;6487;48.626;12.486;2023-01-01T13:11:29;11.90;99.90
12841;DHT22;6487;48.626;12.486;2023-01-01T13:13:58;11.90;99.90
12841;DHT22;6487;48.626;12.486;2023-01-01T13:16:36;11.90;99.90
12841;DHT22;6487;48.626;12.486;2023-01-01T13:19:05;11.90;99.90
12841;DHT22;6487;48.626;12.486;2023-01-01T13:21:48;11.90;99.90
12841;DHT22;6487;48.626;12.486;2023-01-01T13:24:20;11.90;99.90
12841;DHT22;6487;48.626;12.486;2023-01-01T13:26:50;11.80;99.90
12841;DHT22;6487;48.626;12.486;2023-01-01T13:29:43;11.80;99.90
12841;DHT22;6487;48.626;12.486;2023-01-01T13:32:15;11.70;99.90
12841;DHT22;6487;48.626;12.486;2023-01-01T13:35:14;11.70;99.90
12841;DHT22;6487;48.626;12.486;2023-01-01T13:37:47;11.70;99.90
12841;DHT22;6487;48.626;12.486;2023-01-01T13:43:27;11.70;99.90
12841;DHT22;6487;48.626;12.486;2023-01-01T13:45:59;11.70;99.90
12841;DHT22;6487;48.626;12.486;2023-01-01T13:49:16;11.70;99.90
12841;DHT22;6487;48.626;12.486;2023-01-01T13:55:17;11.60;99.90
12841;DHT22;6487;48.626;12.486;2023-01-01T13:58:23;11.60;99.90
12841;DHT22;6487;48.626;12.486;2023-01-01T14:01:34;11.60;99.90
12841;DHT22;6487;48.626;12.486;2023-01-01T14:04:32;11.60;99.90
12841;DHT22;6487;48.626;12.486;2023-01-01T14:07:16;11.50;99.90
12841;DHT22;6487;48.626;12.486;2023-01-01T14:10:23;11.60;99.90
12841;DHT22;6487;48.626;12.486;2023-01-01T14:12:56;11.60;99.90
12841;DHT22;6487;48.626;12.486;2023-01-01T14:15:30;11.60;99.90
12841;DHT22;6487;48.626;12.486;2023-01-01T14:18:01;11.60;99.90
12841;DHT22;6487;48.626;12.486;2023-01-01T14:20:38;11.60;99.90
12841;DHT22;6487;48.626;12.486;2023-01-01T14:23:10;11.60;99.90
12841;DHT22;6487;48.626;12.486;2023-01-01T14:25:42;11.60;99.90
12841;DHT22;6487;48.626;12.486;2023-01-01T14:28:16;11.60;99.90
12841;DHT22;6487;48.626;12.486;2023-01-01T14:30:47;11.60;99.90
12841;DHT22;6487;48.626;12.486;2023-01-01T14:33:21;11.50;99.90
12841;DHT22;6487;48.626;12.486;2023-01-01T14:35:53;11.50;99.90
12841;DHT22;6487;48.626;12.486;2023-01-01T14:38:23;11.40;99.90
12841;DHT22;6487;48.626;12.486;2023-01-01T14:41:03;11.30;99.90
12841;DHT22;6487;48.626;12.486;2023-01-01T14:43:35;11.30;99.90
12841;DHT22;6487;48.626;12.486;2023-01-01T14:46:04;11.30;99.90
12841;DHT22;6487;48.626;12.486;2023-01-01T14:48:41;11.30;99.90
12841;DHT22;6487;48.626;12.486;2023-01-01T14:51:18;11.20;99.90
12841;DHT22;6487;48.626;12.486;2023-01-01T14:53:49;11.20;99.90
12841;DHT22;6487;48.626;12.486;2023-01-01T14:56:24;11.20;99.90
12841;DHT22;6487;48.626;12.486;2023-01-01T14:59:04;11.10;99.90
12841;DHT22;6487;48.626;12.486;2023-01-01T15:01:34;11.10;99.90
12841;DHT22;6487;48.626;12.486;2023-01-01T15:04:12;11.10;99.90
12841;DHT22;6487;48.626;12.486;2023-01-01T15:06:52;11.00;99.90
12841;DHT22;6487;48.626;12.486;2023-01-01T15:09:22;11.10;99.90
12841;DHT22;6487;48.626;12.486;2023-01-01T15:11:51;10.90;99.90
12841;DHT22;6487;48.626;12.486;2023-01-01T15:14:31;10.90;99.90
12841;DHT22;6487;48.626;12.486;2023-01-01T15:17:02;10.90;99.90
12841;DHT22;6487;48.626;12.486;2023-01-01T15:19:31;10.90;99.90
12841;DHT22;6487;48.626;12.486;2023-01-01T15:22:08;10.80;99.90
12841;DHT22;6487;48.626;12.486;2023-01-01T15:24:37;10.70;99.90
12841;DHT22;6487;48.626;12.486;2023-01-01T15:27:18;10.60;99.90
12841;DHT22;6487;48.626;12.486;2023-01-01T15:29:48;10.60;99.90
12841;DHT22;6487;48.626;12.486;2023-01-01T15:32:23;10.50;99.90
12841;DHT22;6487;48.626;12.486;2023-01-01T15:34:53;10.40;99.90
12841;DHT22;6487;48.626;12.486;2023-01-01T15:37:28;10.30;99.90
12841;DHT22;6487;48.626;12.486;2023-01-01T15:39:59;10.30;99.90
12841;DHT22;6487;48.626;12.486;2023-01-01T15:42:31;10.20;99.90
12841;DHT22;6487;48.626;12.486;2023-01-01T15:45:13;10.20;99.90
12841;DHT22;6487;48.626;12.486;2023-01-01T15:47:46;10.20;99.90
12841;DHT22;6487;48.626;12.486;2023-01-01T15:50:21;10.20;99.90
12841;DHT22;6487;48.626;12.486;2023-01-01T15:52:55;10.10;99.90
12841;DHT22;6487;48.626;12.486;2023-01-01T15:55:30;10.00;99.90
12841;DHT22;6487;48.626;12.486;2023-01-01T15:58:02;9.90;99.90
12841;DHT22;6487;48.626;12.486;2023-01-01T16:00:34;9.90;99.90
12841;DHT22;6487;48.626;12.486;2023-01-01T16:03:15;9.90;99.90
12841;DHT22;6487;48.626;12.486;2023-01-01T16:05:47;9.80;99.90
12841;DHT22;6487;48.626;12.486;2023-01-01T16:08:19;9.80;99.90
12841;DHT22;6487;48.626;12.486;2023-01-01T16:10:47;9.70;99.90
12841;DHT22;6487;48.626;12.486;2023-01-01T16:13:17;9.70;99.90
12841;DHT22;6487;48.626;12.486;2023-01-01T16:15:48;9.60;99.90
12841;DHT22;6487;48.626;12.486;2023-01-01T16:18:17;9.60;99.90
12841;DHT22;6487;48.626;12.486;2023-01-01T16:20:46;9.60;99.90
12841;DHT22;6487;48.626;12.486;2023-01-01T16:23:18;9.40;99.90
12841;DHT22;6487;48.626;12.486;2023-01-01T16:25:47;9.40;99.90
12841;DHT22;6487;48.626;12.486;2023-01-01T16:28:15;9.40;99.90
12841;DHT22;6487;48.626;12.486;2023-01-01T16:30:44;9.30;99.90